Time;durP1;ratioP1;P1;durP2;ratioP2;P2;SDS_P1;SDS_P2;PMS_P1;PMS_P2;Temp;Humidity;BMP_temperature;BMP_pressure;BME280_temperature;BME280_humidity;BME280_pressure;Samples;Min_cycle;Max_cycle;Signal;HPM_P1;HPM_P2
2021/07/21 00:01:14;;;;;;;11.35;7.25;;;22.20;54.90;;;;;;5187697;27;27512;-58
2021/07/21 00:04:06;;;;;;;10.50;6.97;;;22.10;54.90;;;;;;5187673;27;27589;-58
2021/07/21 00:07:10;;;;;;;13.07;6.78;;;22.10;54.90;;;;;;5175786;27;27507;-58
2021/07/21 00:09:54;;;;;;;9.52;6.55;;;22.10;55.00;;;;;;5183722;27;27341;-58
2021/07/21 00:16:10;;;;;;;9.82;7.47;;;22.00;55.20;;;;;;5174709;27;27437;-58
2021/07/21 00:18:56;;;;;;;8.30;6.30;;;22.00;55.30;;;;;;5187532;27;27404;-58
2021/07/21 00:21:41;;;;;;;11.00;6.95;;;21.90;55.40;;;;;;5186992;27;27467;-58
2021/07/21 00:24:26;;;;;;;9.43;6.40;;;21.90;55.40;;;;;;5187182;27;27398;-59
2021/07/21 00:27:11;;;;;;;10.30;7.43;;;21.90;55.50;;;;;;5186543;27;27448;-58
2021/07/21 00:29:56;;;;;;;9.13;6.63;;;21.80;55.50;;;;;;5187568;27;27585;-58
2021/07/21 00:32:41;;;;;;;11.20;7.43;;;21.80;55.80;;;;;;5187190;27;27470;-58
2021/07/21 00:35:26;;;;;;;9.25;6.72;;;21.80;55.90;;;;;;5185828;27;27495;-58
2021/07/21 00:38:11;;;;;;;9.63;6.95;;;21.70;55.70;;;;;;5168469;27;27484;-58
2021/07/21 00:40:57;;;;;;;11.40;6.95;;;21.80;55.90;;;;;;5186510;27;27443;-58
2021/07/21 00:43:42;;;;;;;8.40;5.90;;;21.80;56.60;;;;;;5168279;27;27479;-58
2021/07/21 00:46:27;;;;;;;10.15;6.05;;;21.70;55.90;;;;;;5182960;27;27420;-58
2021/07/21 00:49:12;;;;;;;7.85;6.60;;;21.70;55.90;;;;;;5182831;27;27842;-58
2021/07/21 00:51:57;;;;;;;8.77;6.35;;;21.60;55.90;;;;;;5186872;27;27462;-58
2021/07/21 00:54:44;;;;;;;10.73;6.03;;;21.60;56.10;;;;;;5185979;27;27421;-58
2021/07/21 00:57:29;;;;;;;11.23;6.75;;;21.60;56.10;;;;;;5182953;27;27331;-58
2021/07/21 01:00:16;;;;;;;9.65;6.53;;;21.60;56.10;;;;;;5167828;27;27320;-58
2021/07/21 01:03:08;;;;;;;8.30;5.97;;;21.50;56.10;;;;;;5171794;27;27452;-58
2021/07/21 01:05:58;;;;;;;9.20;6.82;;;21.50;56.30;;;;;;5186662;27;27371;-58
2021/07/21 01:08:43;;;;;;;8.07;6.18;;;21.50;56.30;;;;;;5182625;27;27363;-58
2021/07/21 01:12:19;;;;;;;9.75;6.13;;;21.40;56.30;;;;;;5186526;27;27390;-58
2021/07/21 01:15:10;;;;;;;9.48;6.18;;;21.40;56.30;;;;;;5185616;27;27463;-58
2021/07/21 01:18:04;;;;;;;9.80;6.60;;;21.40;56.40;;;;;;5167633;27;27404;-58
2021/07/21 01:21:18;;;;;;;8.50;6.28;;;21.40;56.40;;;;;;5171778;27;27381;-58
2021/07/21 01:24:38;;;;;;;7.82;6.32;;;21.30;56.50;;;;;;5185537;27;27451;-58
2021/07/21 01:27:38;;;;;;;9.05;6.13;;;21.30;56.60;;;;;;5138274;27;27514;-58
2021/07/21 01:30:28;;;;;;;8.90;6.32;;;21.30;56.70;;;;;;5185219;27;27576;-58
2021/07/21 01:33:14;;;;;;;10.20;6.78;;;21.20;56.60;;;;;;5186399;27;27401;-58
2021/07/21 01:36:03;;;;;;;8.10;6.45;;;21.20;56.70;;;;;;5183293;27;27517;-58
2021/07/21 01:38:57;;;;;;;11.90;6.47;;;21.20;56.60;;;;;;5158217;27;27483;-58
2021/07/21 01:41:49;;;;;;;11.43;6.60;;;21.10;56.60;;;;;;5171683;27;27460;-58
2021/07/21 01:44:37;;;;;;;11.13;6.35;;;21.10;56.70;;;;;;5171220;27;27454;-57
2021/07/21 01:47:22;;;;;;;7.97;6.40;;;21.10;56.90;;;;;;5170724;27;27545;-57
2021/07/21 01:50:08;;;;;;;6.65;5.60;;;21.10;56.90;;;;;;5170784;27;27413;-58
2021/07/21 01:52:53;;;;;;;8.00;6.03;;;21.00;56.90;;;;;;5171074;27;27414;-57
2021/07/21 01:55:38;;;;;;;8.35;6.20;;;21.00;56.80;;;;;;5170845;27;27520;-58
2021/07/21 01:58:25;;;;;;;8.38;6.07;;;21.00;57.00;;;;;;5173485;27;27462;-58
2021/07/21 02:01:21;;;;;;;9.48;6.18;;;20.90;56.80;;;;;;5185647;27;27377;-58
2021/07/21 02:04:07;;;;;;;11.23;6.20;;;20.90;56.90;;;;;;5156401;27;27377;-57
2021/07/21 02:06:52;;;;;;;10.35;5.95;;;20.90;56.80;;;;;;5187834;27;27418;-58
2021/07/21 02:09:41;;;;;;;9.77;5.97;;;20.90;57.00;;;;;;5188422;27;27314;-58
2021/07/21 02:12:32;;;;;;;8.30;6.40;;;20.80;57.00;;;;;;5184412;27;27343;-58
2021/07/21 02:15:18;;;;;;;9.43;6.70;;;20.80;57.00;;;;;;5173056;27;27388;-58
2021/07/21 02:18:06;;;;;;;7.93;6.07;;;20.80;57.30;;;;;;5184055;27;27424;-58
2021/07/21 02:20:54;;;;;;;9.45;5.93;;;20.70;57.30;;;;;;5187354;27;27376;-58
2021/07/21 02:23:45;;;;;;;9.48;6.32;;;20.70;57.30;;;;;;5169783;27;27615;-58
2021/07/21 02:27:02;;;;;;;8.35;5.85;;;20.70;57.30;;;;;;5158781;27;27347;-58
2021/07/21 02:29:50;;;;;;;8.20;5.80;;;20.70;57.30;;;;;;5184032;27;27455;-57
2021/07/21 02:32:53;;;;;;;9.65;6.40;;;20.70;57.40;;;;;;5183667;27;27350;-58
2021/07/21 02:35:37;;;;;;;8.82;6.78;;;20.70;57.30;;;;;;5187694;27;27475;-58
2021/07/21 02:38:23;;;;;;;9.40;6.35;;;20.60;57.30;;;;;;5183711;27;27455;-58
2021/07/21 02:41:12;;;;;;;9.45;6.68;;;20.60;57.60;;;;;;5183646;27;27420;-57
2021/07/21 02:43:57;;;;;;;8.63;6.05;;;20.60;57.40;;;;;;5183809;27;27379;-57
2021/07/21 02:46:43;;;;;;;9.52;6.38;;;20.60;57.70;;;;;;5154150;27;27387;-58
2021/07/21 02:49:28;;;;;;;8.63;6.78;;;20.60;57.40;;;;;;5168502;27;27430;-57
2021/07/21 02:52:57;;;;;;;8.95;6.45;;;20.50;57.50;;;;;;5169568;27;27498;-58
2021/07/21 02:55:56;;;;;;;11.65;7.32;;;20.50;57.70;;;;;;5187498;27;27474;-58
2021/07/21 02:58:51;;;;;;;10.35;5.90;;;20.50;57.90;;;;;;5187458;27;27396;-57
2021/07/21 03:01:35;;;;;;;8.07;6.65;;;20.50;57.90;;;;;;5172642;27;27342;-57
2021/07/21 03:04:21;;;;;;;7.65;5.75;;;20.40;57.80;;;;;;5137484;27;1365615;-57
2021/07/21 03:07:08;;;;;;;9.15;6.07;;;20.40;57.90;;;;;;5170205;27;27383;-56
2021/07/21 03:09:56;;;;;;;6.95;5.65;;;20.40;57.90;;;;;;5170361;27;27471;-58
2021/07/21 03:12:43;;;;;;;9.90;5.85;;;20.40;57.90;;;;;;5184672;27;27486;-58
2021/07/21 03:15:47;;;;;;;8.00;5.65;;;20.40;57.90;;;;;;5184041;27;27474;-57
2021/07/21 03:18:33;;;;;;;8.52;5.47;;;20.40;57.90;;;;;;5188560;27;27406;-58
2021/07/21 03:21:19;;;;;;;7.53;5.95;;;20.30;57.90;;;;;;5185503;27;27338;-58
2021/07/21 03:24:07;;;;;;;10.52;6.22;;;20.30;58.00;;;;;;5184319;27;27327;-57
2021/07/21 03:27:01;;;;;;;9.27;5.97;;;20.30;58.00;;;;;;5187353;27;27379;-58
2021/07/21 03:30:08;;;;;;;9.45;5.40;;;20.30;58.10;;;;;;5186864;27;27403;-57
2021/07/21 03:33:04;;;;;;;10.73;5.97;;;20.30;58.10;;;;;;5171139;27;27338;-57
2021/07/21 03:36:02;;;;;;;10.00;6.32;;;20.30;58.30;;;;;;5170366;27;27357;-57
2021/07/21 03:39:07;;;;;;;9.55;6.50;;;20.20;58.40;;;;;;5184637;27;27454;-57
2021/07/21 03:42:06;;;;;;;7.78;6.15;;;20.20;58.30;;;;;;5184012;27;27399;-57
2021/07/21 03:44:52;;;;;;;10.02;6.32;;;20.20;58.60;;;;;;5169371;27;27520;-58
2021/07/21 03:47:40;;;;;;;12.40;6.38;;;20.20;58.60;;;;;;5169464;27;27711;-57
2021/07/21 03:50:25;;;;;;;8.43;5.47;;;20.20;58.40;;;;;;5183805;27;27482;-57
2021/07/21 03:53:11;;;;;;;9.23;6.50;;;20.20;58.50;;;;;;5140336;27;27460;-57
2021/07/21 03:55:56;;;;;;;8.43;5.70;;;20.10;58.70;;;;;;5183249;27;27421;-57
2021/07/21 03:59:04;;;;;;;7.78;5.90;;;20.10;58.70;;;;;;5174719;27;27496;-55
2021/07/21 04:01:53;;;;;;;11.40;6.50;;;20.10;58.80;;;;;;5187961;27;27395;-55
2021/07/21 04:04:42;;;;;;;8.77;6.50;;;20.10;58.90;;;;;;5186016;27;27385;-57
2021/07/21 04:07:27;;;;;;;9.18;6.25;;;20.10;58.70;;;;;;5187885;27;27420;-57
2021/07/21 04:10:20;;;;;;;8.40;5.80;;;20.10;58.70;;;;;;5183605;27;27489;-57
2021/07/21 04:13:06;;;;;;;11.68;5.97;;;20.10;59.00;;;;;;5183474;27;27467;-57
2021/07/21 04:16:12;;;;;;;9.52;6.30;;;20.10;59.00;;;;;;5184040;27;27482;-57
2021/07/21 04:18:56;;;;;;;7.60;5.88;;;20.10;59.20;;;;;;5183370;27;27468;-58
2021/07/21 04:21:45;;;;;;;9.70;5.15;;;20.00;59.20;;;;;;5168705;27;27430;-57
2021/07/21 04:24:29;;;;;;;9.38;6.30;;;20.10;59.20;;;;;;5183428;27;27406;-57
2021/07/21 04:27:14;;;;;;;8.38;6.13;;;20.00;59.10;;;;;;5187617;27;27411;-57
2021/07/21 04:30:07;;;;;;;8.38;6.15;;;20.00;59.10;;;;;;5183116;27;27474;-58
2021/07/21 04:32:53;;;;;;;8.23;6.35;;;20.10;59.30;;;;;;5186754;27;27499;-58
2021/07/21 04:35:40;;;;;;;9.05;6.30;;;20.10;59.50;;;;;;5186406;27;27385;-57
2021/07/21 04:38:30;;;;;;;8.10;6.22;;;20.10;59.50;;;;;;5187105;27;27425;-58
2021/07/21 04:41:24;;;;;;;10.10;5.82;;;20.10;59.50;;;;;;5186333;27;27370;-57
2021/07/21 04:44:29;;;;;;;11.73;7.13;;;20.00;59.70;;;;;;5185473;27;27338;-57
2021/07/21 04:47:14;;;;;;;10.25;5.93;;;20.00;59.80;;;;;;5171881;27;27716;-58
2021/07/21 04:50:06;;;;;;;8.25;6.10;;;20.00;59.60;;;;;;5186285;27;27409;-58
2021/07/21 04:52:52;;;;;;;8.63;6.25;;;20.00;59.70;;;;;;5182821;27;27381;-57
2021/07/21 04:55:41;;;;;;;7.68;6.15;;;20.00;59.80;;;;;;5168557;27;26915;-58
2021/07/21 04:58:27;;;;;;;7.80;5.82;;;20.00;60.20;;;;;;5186953;27;27466;-58
2021/07/21 05:01:21;;;;;;;8.15;6.15;;;20.00;60.00;;;;;;5186851;27;27959;-57
2021/07/21 05:04:08;;;;;;;11.38;6.20;;;20.00;60.40;;;;;;5186486;27;27451;-58
2021/07/21 05:07:19;;;;;;;10.27;6.68;;;20.00;60.60;;;;;;5183612;27;27435;-58
2021/07/21 05:10:07;;;;;;;8.63;6.35;;;20.00;60.80;;;;;;5182661;27;26968;-58
2021/07/21 05:12:55;;;;;;;8.93;6.53;;;20.00;60.90;;;;;;5186458;27;27342;-58
2021/07/21 05:15:47;;;;;;;10.23;6.70;;;20.00;60.90;;;;;;5190481;27;27491;-58
2021/07/21 05:18:35;;;;;;;13.52;6.28;;;20.00;60.80;;;;;;5189781;27;27376;-58
2021/07/21 05:21:23;;;;;;;10.02;7.32;;;20.00;61.00;;;;;;5171792;27;27380;-58
2021/07/21 05:24:08;;;;;;;14.98;7.78;;;20.00;61.10;;;;;;5189774;27;27845;-58
2021/07/21 05:26:53;;;;;;;12.18;6.38;;;20.00;61.30;;;;;;5190577;27;27353;-57
2021/07/21 05:29:43;;;;;;;11.02;7.47;;;20.00;61.40;;;;;;5190574;27;27412;-58
2021/07/21 05:32:42;;;;;;;13.75;7.65;;;20.10;61.30;;;;;;5190213;27;27423;-58
2021/07/21 05:35:31;;;;;;;15.50;7.35;;;20.00;61.40;;;;;;5185839;27;27927;-58
2021/07/21 05:38:38;;;;;;;10.27;7.15;;;20.00;61.50;;;;;;5186321;27;27594;-58
2021/07/21 05:41:23;;;;;;;14.40;8.40;;;20.10;62.00;;;;;;5185957;27;27475;-58
2021/07/21 05:44:08;;;;;;;14.35;7.45;;;20.00;61.90;;;;;;5186016;27;27469;-58
2021/07/21 05:46:53;;;;;;;16.52;8.07;;;20.10;62.50;;;;;;5170945;27;27844;-58
2021/07/21 05:49:38;;;;;;;14.10;7.78;;;20.10;62.50;;;;;;5185865;27;27428;-58
2021/07/21 05:52:30;;;;;;;15.82;9.35;;;20.10;62.50;;;;;;5186005;27;27410;-59
2021/07/21 05:55:16;;;;;;;13.05;8.25;;;20.20;62.90;;;;;;5189888;27;27459;-59
2021/07/21 05:58:02;;;;;;;12.40;8.55;;;20.20;62.90;;;;;;5156003;27;27841;-58
2021/07/21 06:00:47;;;;;;;13.30;8.90;;;20.20;63.20;;;;;;5156523;27;27443;-59
2021/07/21 06:03:38;;;;;;;15.40;9.13;;;20.30;63.10;;;;;;5185493;27;27412;-59
2021/07/21 06:06:42;;;;;;;15.43;8.57;;;20.30;63.20;;;;;;5188339;27;27332;-58
2021/07/21 06:09:42;;;;;;;14.35;9.32;;;20.30;63.30;;;;;;5189291;27;27425;-58
2021/07/21 06:12:32;;;;;;;14.63;9.63;;;20.50;63.50;;;;;;5185346;27;27372;-58
2021/07/21 06:15:17;;;;;;;11.90;9.23;;;20.60;63.30;;;;;;5171096;27;27358;-58
2021/07/21 06:18:02;;;;;;;13.10;8.75;;;20.70;63.00;;;;;;5189631;27;27342;-59
2021/07/21 06:21:03;;;;;;;17.55;9.77;;;20.90;62.90;;;;;;5189656;27;27847;-58
2021/07/21 06:23:48;;;;;;;13.40;9.40;;;21.10;62.00;;;;;;5185832;27;27485;-59
2021/07/21 06:26:34;;;;;;;14.63;9.50;;;21.30;61.50;;;;;;5190251;27;27421;-58
2021/07/21 06:29:56;;;;;;;15.20;9.20;;;21.40;61.60;;;;;;5184257;27;27424;-59
2021/07/21 06:32:41;;;;;;;13.80;10.07;;;21.50;61.80;;;;;;5186051;27;27463;-59
2021/07/21 06:35:26;;;;;;;13.00;9.25;;;21.60;61.70;;;;;;5188059;27;27474;-59
2021/07/21 06:38:13;;;;;;;13.35;9.32;;;21.80;61.70;;;;;;5185778;27;27445;-59
2021/07/21 06:41:02;;;;;;;13.82;9.48;;;21.90;61.60;;;;;;5157194;27;27342;-59
2021/07/21 06:43:54;;;;;;;13.93;9.80;;;22.20;61.60;;;;;;5171852;27;27503;-59
2021/07/21 06:46:58;;;;;;;12.38;9.00;;;22.30;61.40;;;;;;5189570;27;27470;-59
2021/07/21 06:49:45;;;;;;;10.80;8.32;;;22.40;61.40;;;;;;5185437;27;26899;-59
2021/07/21 06:52:30;;;;;;;13.43;8.90;;;22.60;61.40;;;;;;5189884;27;27368;-59
2021/07/21 06:55:19;;;;;;;14.02;9.20;;;22.70;61.30;;;;;;5185470;27;27459;-60
2021/07/21 06:58:10;;;;;;;15.65;9.57;;;22.90;61.20;;;;;;5171253;27;27329;-59
2021/07/21 07:01:14;;;;;;;12.05;9.10;;;23.00;61.40;;;;;;5189092;27;27387;-59
2021/07/21 07:04:17;;;;;;;13.32;9.00;;;23.20;61.20;;;;;;5188177;27;27451;-60
2021/07/21 07:07:40;;;;;;;15.02;8.52;;;23.30;60.90;;;;;;5124692;27;27860;-60
2021/07/21 07:11:03;;;;;;;11.82;9.23;;;23.50;61.20;;;;;;5083931;28;27428;-60
2021/07/21 07:13:48;;;;;;;11.88;7.72;;;23.70;60.90;;;;;;5084127;28;27438;-60
2021/07/21 07:16:32;;;;;;;14.23;8.38;;;23.80;60.90;;;;;;5083552;28;27343;-60
2021/07/21 07:19:17;;;;;;;12.68;8.73;;;23.90;61.60;;;;;;5068593;28;27407;-60
2021/07/21 07:22:03;;;;;;;12.07;8.45;;;24.00;61.40;;;;;;5083551;28;27367;-60
2021/07/21 07:24:47;;;;;;;11.32;8.70;;;24.20;60.80;;;;;;5081328;28;27427;-60
2021/07/21 07:27:32;;;;;;;12.27;8.77;;;24.40;60.50;;;;;;5083276;28;27374;-61
2021/07/21 07:30:17;;;;;;;11.15;7.90;;;24.50;60.60;;;;;;5083528;28;27450;-62
2021/07/21 07:33:02;;;;;;;13.93;8.48;;;24.70;61.20;;;;;;5083074;28;27383;-60
2021/07/21 07:35:46;;;;;;;10.38;7.63;;;24.80;61.10;;;;;;5083098;28;27444;-61
2021/07/21 07:38:31;;;;;;;9.75;7.80;;;25.00;60.30;;;;;;5110727;27;27603;-61
2021/07/21 07:41:16;;;;;;;16.33;8.10;;;25.20;60.70;;;;;;5150242;27;27990;-61
2021/07/21 07:44:01;;;;;;;11.05;8.60;;;25.30;59.60;;;;;;5188923;27;27368;-61
2021/07/21 07:46:46;;;;;;;9.38;7.80;;;25.50;60.70;;;;;;5187893;27;27390;-61
2021/07/21 07:49:31;;;;;;;11.45;8.52;;;25.60;60.20;;;;;;5188519;27;27396;-61
2021/07/21 07:52:16;;;;;;;11.73;7.97;;;25.80;59.70;;;;;;5188467;27;27488;-62
2021/07/21 07:55:01;;;;;;;11.40;7.60;;;25.90;59.20;;;;;;5188023;27;27314;-61
2021/07/21 07:57:45;;;;;;;10.02;7.85;;;25.90;58.80;;;;;;5188677;27;27309;-61
2021/07/21 08:00:31;;;;;;;15.00;9.48;;;26.10;58.80;;;;;;5169416;27;27312;-61
2021/07/21 08:03:16;;;;;;;13.27;7.82;;;26.10;59.70;;;;;;5169518;27;27380;-61
2021/07/21 08:06:02;;;;;;;9.88;8.07;;;26.10;59.70;;;;;;5187697;27;27400;-62
2021/07/21 08:08:46;;;;;;;9.25;7.25;;;26.10;60.60;;;;;;5187303;27;27345;-61
2021/07/21 08:11:31;;;;;;;10.82;8.23;;;26.00;59.10;;;;;;5188141;27;27395;-61
2021/07/21 08:14:18;;;;;;;10.07;7.78;;;25.90;60.70;;;;;;5188429;27;27379;-62
2021/07/21 08:17:03;;;;;;;11.80;8.10;;;25.80;60.90;;;;;;5183974;27;27359;-61
2021/07/21 08:19:48;;;;;;;9.60;7.95;;;25.70;60.80;;;;;;5188084;27;27408;-61
2021/07/21 08:22:39;;;;;;;9.07;7.63;;;25.80;60.50;;;;;;5187564;27;27448;-61
2021/07/21 08:25:24;;;;;;;10.25;7.95;;;25.90;60.80;;;;;;5184089;27;27459;-61
2021/07/21 08:28:14;;;;;;;12.32;8.55;;;26.10;59.60;;;;;;5184067;27;27312;-61
2021/07/21 08:30:58;;;;;;;10.52;8.23;;;26.30;59.40;;;;;;5188257;27;27396;-61
2021/07/21 08:33:44;;;;;;;12.70;7.85;;;26.60;57.90;;;;;;5187901;27;27392;-61
2021/07/21 08:36:29;;;;;;;11.48;8.02;;;26.90;57.20;;;;;;5187430;27;27881;-63
2021/07/21 08:39:14;;;;;;;10.98;8.23;;;27.20;55.90;;;;;;5187453;27;27391;-62
2021/07/21 08:41:59;;;;;;;10.68;7.95;;;27.40;55.60;;;;;;5183650;27;27311;-62
2021/07/21 08:44:44;;;;;;;11.93;8.27;;;27.70;55.40;;;;;;5188667;27;27314;-61
2021/07/21 08:47:29;;;;;;;11.63;7.38;;;27.90;54.50;;;;;;5190452;27;27659;-62
2021/07/21 08:50:14;;;;;;;14.20;7.93;;;28.10;54.90;;;;;;5191403;27;27651;-63
2021/07/21 08:52:59;;;;;;;15.77;7.95;;;28.30;55.20;;;;;;5191764;27;27364;-62
2021/07/21 08:55:43;;;;;;;9.93;7.32;;;28.40;54.40;;;;;;5190730;27;27322;-62
2021/07/21 08:58:28;;;;;;;11.27;7.32;;;28.60;53.20;;;;;;5190561;27;27342;-62
2021/07/21 09:01:13;;;;;;;12.32;7.53;;;28.70;53.00;;;;;;5191607;27;27425;-62
2021/07/21 09:03:58;;;;;;;9.63;7.45;;;28.90;53.90;;;;;;5190995;27;27326;-62
2021/07/21 09:06:43;;;;;;;10.57;7.32;;;29.10;54.20;;;;;;5190848;27;27369;-62
2021/07/21 09:09:28;;;;;;;13.15;7.60;;;29.30;54.40;;;;;;5190376;27;27333;-63
2021/07/21 09:12:12;;;;;;;10.35;7.47;;;29.50;54.90;;;;;;5186974;27;27409;-62
2021/07/21 09:14:57;;;;;;;11.63;8.43;;;29.60;53.80;;;;;;5191359;27;27389;-62
2021/07/21 09:17:57;;;;;;;11.57;7.97;;;29.80;53.20;;;;;;5190653;27;27309;-62
2021/07/21 09:20:55;;;;;;;10.88;7.80;;;29.90;52.10;;;;;;5191200;27;28039;-62
2021/07/21 09:23:43;;;;;;;11.68;7.85;;;30.10;52.00;;;;;;5190543;27;27496;-62
2021/07/21 09:26:28;;;;;;;15.10;8.02;;;30.20;50.60;;;;;;5191244;27;27350;-62
2021/07/21 09:29:14;;;;;;;11.98;8.43;;;30.10;43.70;;;;;;5191168;27;27374;-62
2021/07/21 09:32:00;;;;;;;16.45;8.70;;;30.00;40.90;;;;;;5175294;27;27870;-62
2021/07/21 09:34:47;;;;;;;20.00;9.45;;;30.00;41.40;;;;;;5190684;27;27442;-62
2021/07/21 09:37:35;;;;;;;12.10;8.15;;;30.00;41.10;;;;;;5175858;27;27424;-62
2021/07/21 09:40:20;;;;;;;10.88;8.02;;;29.90;40.30;;;;;;5190923;27;27329;-62
2021/07/21 09:43:13;;;;;;;12.45;8.23;;;29.90;39.90;;;;;;5175045;27;28011;-62
2021/07/21 09:46:08;;;;;;;13.65;7.57;;;29.90;39.80;;;;;;5190535;27;27454;-62
2021/07/21 09:48:53;;;;;;;16.67;9.07;;;29.90;42.20;;;;;;5190528;27;27465;-62
2021/07/21 09:51:38;;;;;;;16.92;9.70;;;30.00;44.60;;;;;;5190462;27;27470;-62
2021/07/21 09:54:23;;;;;;;9.60;7.60;;;30.20;46.70;;;;;;5174890;27;27427;-62
2021/07/21 09:57:13;;;;;;;10.00;8.15;;;30.30;48.10;;;;;;5189128;27;27429;-62
2021/07/21 10:00:00;;;;;;;9.20;7.93;;;30.30;48.60;;;;;;5174910;27;27407;-62
2021/07/21 10:02:47;;;;;;;13.27;8.02;;;30.40;49.40;;;;;;5190580;27;27480;-63
2021/07/21 10:05:32;;;;;;;14.30;7.85;;;30.60;50.30;;;;;;5189634;27;28075;-62
2021/07/21 10:08:33;;;;;;;8.27;7.03;;;30.70;49.60;;;;;;5190447;27;27439;-62
2021/07/21 10:11:24;;;;;;;13.65;8.27;;;30.80;49.40;;;;;;5189833;27;27674;-62
2021/07/21 10:14:11;;;;;;;9.65;6.70;;;30.80;50.20;;;;;;5172201;27;27426;-63
2021/07/21 10:16:56;;;;;;;11.45;7.63;;;30.90;51.10;;;;;;5189837;27;27870;-63
2021/07/21 10:19:40;;;;;;;10.70;7.50;;;31.10;52.20;;;;;;5189978;27;27519;-62
2021/07/21 10:22:25;;;;;;;10.75;7.47;;;31.30;51.70;;;;;;5174759;27;27366;-63
2021/07/21 10:25:11;;;;;;;9.70;7.80;;;31.60;50.80;;;;;;5189492;27;27315;-63
2021/07/21 10:27:57;;;;;;;9.07;7.80;;;31.60;48.00;;;;;;5190097;27;27936;-63
2021/07/21 10:30:42;;;;;;;10.70;8.20;;;31.70;47.60;;;;;;5189879;27;27528;-63
2021/07/21 10:33:27;;;;;;;10.98;7.18;;;31.60;48.40;;;;;;5190109;27;27310;-63
2021/07/21 10:36:12;;;;;;;9.05;7.20;;;31.70;49.30;;;;;;5189805;27;27379;-64
2021/07/21 10:38:57;;;;;;;11.10;7.28;;;31.80;51.10;;;;;;5189430;27;27351;-63
2021/07/21 10:41:46;;;;;;;8.93;7.72;;;31.90;50.40;;;;;;5174536;27;27410;-62
2021/07/21 10:44:31;;;;;;;10.25;7.53;;;32.00;50.00;;;;;;5188918;27;27437;-63
2021/07/21 10:47:25;;;;;;;10.40;8.23;;;32.10;50.10;;;;;;5174356;27;27454;-63
2021/07/21 10:50:29;;;;;;;9.95;8.18;;;32.20;49.90;;;;;;5189444;27;27502;-62
2021/07/21 10:59:39;;;;;;;12.25;8.20;;;32.50;46.90;;;;;;5189656;27;27450;-62
2021/07/21 11:02:24;;;;;;;10.48;7.78;;;32.50;47.40;;;;;;5188822;27;27842;-62
2021/07/21 11:05:29;;;;;;;12.77;7.90;;;32.40;47.60;;;;;;5187301;27;27405;-62
2021/07/21 11:08:19;;;;;;;11.85;8.82;;;32.40;47.60;;;;;;5188519;27;27462;-62
2021/07/21 11:11:10;;;;;;;13.60;8.05;;;32.40;48.90;;;;;;5189493;27;27321;-63
2021/07/21 11:13:58;;;;;;;11.05;8.55;;;32.60;49.30;;;;;;5184899;27;27457;-62
2021/07/21 11:16:46;;;;;;;12.27;8.35;;;32.70;48.60;;;;;;5188809;27;27399;-62
2021/07/21 11:19:50;;;;;;;10.23;7.80;;;32.80;48.30;;;;;;5184910;27;27418;-63
2021/07/21 11:22:36;;;;;;;10.93;8.35;;;32.90;47.50;;;;;;5189300;27;27394;-62
2021/07/21 11:25:21;;;;;;;9.60;8.13;;;33.00;47.60;;;;;;5188114;27;27412;-62
2021/07/21 11:28:07;;;;;;;10.70;8.80;;;33.10;47.70;;;;;;5173591;27;27488;-63
2021/07/21 11:30:58;;;;;;;11.68;9.18;;;33.10;47.70;;;;;;5184817;27;27545;-62
2021/07/21 11:33:54;;;;;;;11.20;9.07;;;33.10;46.80;;;;;;5187539;27;27592;-62
2021/07/21 11:36:43;;;;;;;11.05;8.68;;;33.10;47.10;;;;;;5188772;27;27333;-62
2021/07/21 11:39:42;;;;;;;11.20;8.55;;;33.00;47.60;;;;;;5188701;27;27463;-62
2021/07/21 11:42:38;;;;;;;12.02;8.80;;;33.00;47.90;;;;;;5173175;27;27370;-62
2021/07/21 11:45:23;;;;;;;13.77;8.85;;;33.00;48.70;;;;;;5188636;27;27394;-62
2021/07/21 11:48:08;;;;;;;13.73;9.32;;;33.00;47.10;;;;;;5188796;27;27924;-62
2021/07/21 11:50:53;;;;;;;15.73;9.25;;;33.00;47.40;;;;;;5188429;27;27383;-62
2021/07/21 11:53:38;;;;;;;11.77;9.13;;;32.90;46.90;;;;;;5187728;27;27403;-62
2021/07/21 11:56:22;;;;;;;12.15;9.25;;;32.80;46.40;;;;;;5187752;27;27394;-62
2021/07/21 11:59:07;;;;;;;14.82;9.98;;;32.80;47.90;;;;;;5187884;27;27390;-62
2021/07/21 12:02:07;;;;;;;14.38;9.48;;;32.80;48.40;;;;;;5188175;27;27550;-62
2021/07/21 12:04:53;;;;;;;16.17;9.80;;;32.70;48.30;;;;;;5185543;27;27425;-62
2021/07/21 12:07:38;;;;;;;12.93;9.98;;;32.60;47.60;;;;;;5188585;27;27400;-62
2021/07/21 12:10:23;;;;;;;13.70;9.82;;;32.60;48.20;;;;;;5169291;27;27463;-62
2021/07/21 12:13:09;;;;;;;15.20;10.00;;;32.60;48.30;;;;;;5188391;27;27478;-62
2021/07/21 12:16:00;;;;;;;13.63;10.30;;;32.60;47.70;;;;;;5172791;27;27461;-62
2021/07/21 12:18:45;;;;;;;12.43;9.32;;;32.70;47.60;;;;;;5187337;27;27429;-62
2021/07/21 12:21:33;;;;;;;12.93;10.25;;;32.50;47.20;;;;;;5186931;27;27943;-62
2021/07/21 12:24:18;;;;;;;12.90;10.52;;;32.30;47.80;;;;;;5169420;27;27414;-62
2021/07/21 12:27:04;;;;;;;13.43;9.63;;;32.20;48.40;;;;;;5172873;27;27495;-62
2021/07/21 12:29:49;;;;;;;12.57;10.68;;;32.20;49.20;;;;;;5183810;27;27396;-62
2021/07/21 12:32:34;;;;;;;14.20;10.98;;;32.20;48.60;;;;;;5188135;27;27455;-63
2021/07/21 12:35:23;;;;;;;16.90;11.05;;;32.20;48.70;;;;;;5183870;27;27417;-62
2021/07/21 12:38:08;;;;;;;12.10;10.50;;;32.10;48.60;;;;;;5188221;27;27404;-62
2021/07/21 12:40:53;;;;;;;12.80;10.10;;;32.20;49.70;;;;;;5187314;27;27379;-62
2021/07/21 12:43:38;;;;;;;14.63;10.75;;;32.10;50.50;;;;;;5186994;27;27963;-62
2021/07/21 12:46:23;;;;;;;12.90;9.90;;;32.30;49.10;;;;;;5186864;27;27398;-62
2021/07/21 12:49:08;;;;;;;14.32;11.20;;;32.30;49.00;;;;;;5183897;27;27329;-62
2021/07/21 12:51:53;;;;;;;16.15;10.38;;;32.30;48.10;;;;;;5187976;27;27322;-62
2021/07/21 12:54:37;;;;;;;11.85;10.23;;;32.30;48.10;;;;;;5187877;27;27845;-62
2021/07/21 12:57:43;;;;;;;14.15;10.40;;;32.40;49.30;;;;;;5186431;27;27410;-62
2021/07/21 13:00:31;;;;;;;11.65;10.45;;;32.40;49.30;;;;;;5187614;27;27417;-63
2021/07/21 13:03:18;;;;;;;15.23;9.52;;;32.40;47.50;;;;;;5186625;27;27473;-61
2021/07/21 13:06:03;;;;;;;11.80;10.27;;;32.40;48.70;;;;;;5186009;27;27441;-62
2021/07/21 13:08:49;;;;;;;11.52;10.32;;;32.40;49.00;;;;;;5187397;27;27469;-62
2021/07/21 13:11:34;;;;;;;13.65;10.65;;;32.40;47.50;;;;;;5168617;27;27421;-62
2021/07/21 13:14:19;;;;;;;12.98;9.38;;;32.30;46.40;;;;;;5187432;27;27462;-61
2021/07/21 13:17:12;;;;;;;11.90;10.13;;;32.20;46.60;;;;;;5186276;27;27488;-61
2021/07/21 13:20:05;;;;;;;14.50;10.68;;;32.00;47.80;;;;;;5171675;27;27468;-61
2021/07/21 13:22:50;;;;;;;12.05;10.18;;;32.00;47.40;;;;;;5186419;27;27393;-61
2021/07/21 13:25:36;;;;;;;11.07;9.70;;;31.90;46.90;;;;;;5172029;27;27371;-62
2021/07/21 13:28:27;;;;;;;13.23;10.73;;;31.80;47.40;;;;;;5171775;27;27489;-61
2021/07/21 13:31:14;;;;;;;12.80;9.77;;;31.80;47.30;;;;;;5187459;27;27409;-61
2021/07/21 13:34:20;;;;;;;12.00;10.40;;;31.70;47.00;;;;;;5191119;27;27307;-61
2021/07/21 13:37:06;;;;;;;11.88;10.32;;;31.60;47.00;;;;;;5189795;27;27430;-62
2021/07/21 13:39:50;;;;;;;16.50;9.60;;;31.40;46.40;;;;;;5190000;27;27510;-61
2021/07/21 13:42:35;;;;;;;13.82;10.18;;;31.20;48.00;;;;;;5157356;27;27464;-61
2021/07/21 13:45:20;;;;;;;13.43;11.07;;;31.10;48.80;;;;;;5190920;27;27429;-61
2021/07/21 13:48:05;;;;;;;13.77;10.82;;;30.90;47.00;;;;;;5174991;27;27507;-61
2021/07/21 13:51:09;;;;;;;12.93;10.32;;;30.80;47.80;;;;;;5190453;27;27625;-61
2021/07/21 13:53:54;;;;;;;16.38;9.80;;;30.70;48.40;;;;;;5190803;27;27366;-61
2021/07/21 13:56:39;;;;;;;13.15;9.50;;;30.60;48.80;;;;;;5174246;27;27414;-61
2021/07/21 13:59:23;;;;;;;12.40;9.65;;;30.70;49.70;;;;;;5190708;27;27330;-61
2021/07/21 14:02:10;;;;;;;12.10;9.38;;;30.80;49.40;;;;;;5189864;27;27321;-62
2021/07/21 14:04:55;;;;;;;11.05;9.75;;;30.90;49.90;;;;;;5189092;27;27679;-61
2021/07/21 14:07:40;;;;;;;12.25;9.63;;;31.10;49.20;;;;;;5190235;27;27371;-61
2021/07/21 14:10:25;;;;;;;12.45;10.15;;;31.20;49.10;;;;;;5190386;27;27531;-61
2021/07/21 14:13:10;;;;;;;13.82;9.40;;;31.40;48.80;;;;;;5190335;27;27548;-61
2021/07/21 14:15:54;;;;;;;12.95;10.55;;;31.60;47.80;;;;;;5190218;27;27376;-61
2021/07/21 14:18:39;;;;;;;12.27;9.85;;;31.60;46.80;;;;;;5189507;27;27540;-61
2021/07/21 14:21:24;;;;;;;10.68;9.13;;;31.60;47.30;;;;;;5189302;27;27431;-61
2021/07/21 14:24:09;;;;;;;10.38;8.82;;;31.70;48.10;;;;;;5190192;27;27327;-61
2021/07/21 14:26:54;;;;;;;16.67;9.52;;;31.80;47.20;;;;;;5189903;27;27407;-61
2021/07/21 14:29:39;;;;;;;15.93;9.57;;;31.80;47.10;;;;;;5189896;27;27335;-62
2021/07/21 14:32:24;;;;;;;16.33;9.23;;;31.70;47.30;;;;;;5189799;27;27372;-61
2021/07/21 14:35:09;;;;;;;12.38;9.38;;;31.70;47.80;;;;;;5189915;27;27843;-61
2021/07/21 14:37:54;;;;;;;13.70;9.20;;;31.70;47.90;;;;;;5185940;27;27346;-61
2021/07/21 14:40:39;;;;;;;10.57;8.55;;;31.80;47.70;;;;;;5190134;27;27411;-61